SIA241 WSSS-YSSY
Flight info
| Callsign | SIA241 |
|---|---|
| Flight time | N/A |
| Altitude | 39000 |
| Route | IDBUD1A IDBUD T24 SURGA M635 ATMAP A576 CIN/N0482F410 A576 APOMA Y52 VELGI Y105 TARAL Y59 RIVET |
| Aircraft | A359/H-SDE2E3GHIJ3J4J5LM1ORWXY/LB1D1 |
Departure
| Time | 2026-05-05 02:58 |
|---|---|
| Airport | Singapore Changi Airport (WSSS) |
Arrival
| Time | N/A |
|---|---|
| Airport | Sydney Kingsford Smith International Airport (YSSY) |
| Time | Latitude | Longitude | Altitude | Speed | Heading |
|---|---|---|---|---|---|
| 2026-05-05 02:39 | 1.35056 | 103.98260 | 36 ft | 0 kts | 153° |
| 2026-05-05 02:47 | 1.35066 | 103.98255 | 35 ft | 3 kts | 153° |
| 2026-05-05 02:47 | 1.35082 | 103.98247 | 34 ft | 3 kts | 153° |
| 2026-05-05 02:48 | 1.35101 | 103.98239 | 34 ft | 3 kts | 170° |
| 2026-05-05 02:48 | 1.35121 | 103.98238 | 35 ft | 3 kts | 191° |
| 2026-05-05 02:48 | 1.35138 | 103.98244 | 32 ft | 1 kts | 200° |
| 2026-05-05 02:48 | 1.35151 | 103.98247 | 34 ft | 3 kts | 195° |
| 2026-05-05 02:49 | 1.35169 | 103.98253 | 33 ft | 3 kts | 206° |
| 2026-05-05 02:49 | 1.35172 | 103.98255 | 34 ft | 0 kts | 206° |
| 2026-05-05 02:51 | 1.35168 | 103.98253 | 33 ft | 4 kts | 207° |
| 2026-05-05 02:51 | 1.35131 | 103.98216 | 34 ft | 10 kts | 235° |
| 2026-05-05 02:51 | 1.35095 | 103.98147 | 37 ft | 12 kts | 241° |
| 2026-05-05 02:51 | 1.35029 | 103.98095 | 37 ft | 13 kts | 203° |
| 2026-05-05 02:52 | 1.34944 | 103.98059 | 37 ft | 14 kts | 203° |
| 2026-05-05 02:52 | 1.34851 | 103.98021 | 37 ft | 15 kts | 196° |
| 2026-05-05 02:52 | 1.34774 | 103.98066 | 37 ft | 13 kts | 116° |
| 2026-05-05 02:52 | 1.34737 | 103.98156 | 37 ft | 15 kts | 113° |
| 2026-05-05 02:53 | 1.34695 | 103.98254 | 42 ft | 14 kts | 113° |
| 2026-05-05 02:53 | 1.34660 | 103.98336 | 52 ft | 12 kts | 113° |
| 2026-05-05 02:53 | 1.34624 | 103.98418 | 51 ft | 14 kts | 113° |
| 2026-05-05 02:53 | 1.34581 | 103.98520 | 44 ft | 20 kts | 113° |
| 2026-05-05 02:54 | 1.34516 | 103.98672 | 37 ft | 25 kts | 113° |
| 2026-05-05 02:54 | 1.34446 | 103.98834 | 37 ft | 26 kts | 113° |
| 2026-05-05 02:54 | 1.34378 | 103.98922 | 37 ft | 15 kts | 171° |
| 2026-05-05 02:54 | 1.34276 | 103.98891 | 37 ft | 16 kts | 204° |
| 2026-05-05 02:55 | 1.34170 | 103.98845 | 37 ft | 17 kts | 202° |
| 2026-05-05 02:55 | 1.34057 | 103.98799 | 37 ft | 18 kts | 202° |
| 2026-05-05 02:55 | 1.33937 | 103.98749 | 37 ft | 19 kts | 202° |
| 2026-05-05 02:55 | 1.33811 | 103.98696 | 37 ft | 20 kts | 202° |
| 2026-05-05 02:56 | 1.33680 | 103.98641 | 37 ft | 21 kts | 202° |
| 2026-05-05 02:56 | 1.33543 | 103.98583 | 37 ft | 22 kts | 204° |
| 2026-05-05 02:56 | 1.33401 | 103.98522 | 37 ft | 23 kts | 202° |
| 2026-05-05 02:56 | 1.33254 | 103.98461 | 37 ft | 23 kts | 202° |
| 2026-05-05 02:57 | 1.33103 | 103.98397 | 37 ft | 24 kts | 203° |
| 2026-05-05 02:57 | 1.32951 | 103.98376 | 37 ft | 22 kts | 141° |
| 2026-05-05 02:57 | 1.32922 | 103.98500 | 37 ft | 18 kts | 55° |
| 2026-05-05 02:57 | 1.33027 | 103.98561 | 37 ft | 20 kts | 23° |
| 2026-05-05 02:58 | 1.33286 | 103.98670 | 37 ft | 71 kts | 22° |
| 2026-05-05 02:58 | 1.33932 | 103.98943 | 37 ft | 129 kts | 22° |
| 2026-05-05 02:58 | 1.34924 | 103.99359 | 54 ft | 176 kts | 24° |
| 2026-05-05 02:58 | 1.36050 | 103.99837 | 714 ft | 172 kts | 22° |
| 2026-05-05 02:59 | 1.37128 | 104.00289 | 1392 ft | 171 kts | 23° |
| 2026-05-05 02:59 | 1.38243 | 104.00762 | 1830 ft | 179 kts | 23° |
| 2026-05-05 02:59 | 1.39446 | 104.01271 | 2047 ft | 197 kts | 23° |
| 2026-05-05 02:59 | 1.40779 | 104.01834 | 2180 ft | 220 kts | 22° |
| 2026-05-05 03:00 | 1.42257 | 104.02458 | 2386 ft | 240 kts | 22° |
| 2026-05-05 03:00 | 1.43856 | 104.03134 | 2643 ft | 257 kts | 22° |
| 2026-05-05 03:00 | 1.45523 | 104.03858 | 3102 ft | 264 kts | 25° |
| 2026-05-05 03:00 | 1.47018 | 104.04934 | 3639 ft | 268 kts | 48° |
| 2026-05-05 03:01 | 1.47892 | 104.06567 | 4193 ft | 270 kts | 77° |
| 2026-05-05 03:01 | 1.47820 | 104.08429 | 4758 ft | 272 kts | 108° |
| 2026-05-05 03:01 | 1.47104 | 104.10181 | 5305 ft | 274 kts | 115° |
| 2026-05-05 03:01 | 1.46281 | 104.11907 | 5836 ft | 277 kts | 115° |
| 2026-05-05 03:02 | 1.45449 | 104.13648 | 6377 ft | 279 kts | 115° |
| 2026-05-05 03:02 | 1.44615 | 104.15411 | 6878 ft | 281 kts | 115° |
| 2026-05-05 03:02 | 1.43783 | 104.17184 | 7410 ft | 283 kts | 115° |
| 2026-05-05 03:02 | 1.42947 | 104.18980 | 7928 ft | 285 kts | 115° |
| 2026-05-05 03:03 | 1.42111 | 104.20784 | 8455 ft | 287 kts | 115° |
| 2026-05-05 03:03 | 1.41269 | 104.22603 | 8862 ft | 289 kts | 115° |
| 2026-05-05 03:03 | 1.40421 | 104.24433 | 8990 ft | 290 kts | 115° |
| 2026-05-05 03:03 | 1.39573 | 104.26265 | 8995 ft | 291 kts | 115° |
| 2026-05-05 03:04 | 1.38721 | 104.28106 | 8991 ft | 292 kts | 115° |
| 2026-05-05 03:04 | 1.37869 | 104.29947 | 8995 ft | 292 kts | 115° |
| 2026-05-05 03:04 | 1.37015 | 104.31793 | 8992 ft | 292 kts | 115° |
| 2026-05-05 03:04 | 1.36175 | 104.33609 | 8993 ft | 292 kts | 115° |
| 2026-05-05 03:05 | 1.35322 | 104.35455 | 8995 ft | 292 kts | 115° |
| 2026-05-05 03:05 | 1.34469 | 104.37299 | 8994 ft | 292 kts | 115° |
| 2026-05-05 03:05 | 1.33551 | 104.39105 | 8992 ft | 292 kts | 123° |
| 2026-05-05 03:05 | 1.32119 | 104.40521 | 9124 ft | 293 kts | 150° |
| 2026-05-05 03:06 | 1.30219 | 104.41247 | 9627 ft | 293 kts | 165° |
| 2026-05-05 03:06 | 1.28238 | 104.41757 | 10125 ft | 297 kts | 166° |
| 2026-05-05 03:06 | 1.26197 | 104.42265 | 10338 ft | 310 kts | 166° |
| 2026-05-05 03:06 | 1.24057 | 104.42806 | 10501 ft | 323 kts | 165° |
| 2026-05-05 03:07 | 1.21837 | 104.43372 | 10702 ft | 336 kts | 165° |
| 2026-05-05 03:07 | 1.19534 | 104.43962 | 10863 ft | 347 kts | 165° |
| 2026-05-05 03:07 | 1.17155 | 104.44574 | 11038 ft | 358 kts | 165° |
| 2026-05-05 03:07 | 1.14705 | 104.45205 | 11212 ft | 367 kts | 165° |
| 2026-05-05 03:08 | 1.12212 | 104.45848 | 11538 ft | 372 kts | 165° |
| 2026-05-05 03:08 | 1.09702 | 104.46503 | 11898 ft | 374 kts | 164° |
| 2026-05-05 03:08 | 1.07184 | 104.47201 | 12283 ft | 376 kts | 163° |
| 2026-05-05 03:08 | 1.04656 | 104.47912 | 12652 ft | 379 kts | 163° |
| 2026-05-05 03:09 | 1.02112 | 104.48625 | 13014 ft | 381 kts | 163° |
| 2026-05-05 03:09 | 0.99551 | 104.49340 | 13373 ft | 383 kts | 163° |
| 2026-05-05 03:09 | 0.96976 | 104.50058 | 13734 ft | 385 kts | 163° |
| 2026-05-05 03:09 | 0.94385 | 104.50779 | 14037 ft | 387 kts | 163° |
| 2026-05-05 03:10 | 0.91782 | 104.51502 | 14356 ft | 389 kts | 163° |
| 2026-05-05 03:10 | 0.89170 | 104.52228 | 14671 ft | 391 kts | 163° |
| 2026-05-05 03:10 | 0.86576 | 104.52949 | 14989 ft | 392 kts | 163° |
| 2026-05-05 03:10 | 0.84800 | 104.53443 | 15200 ft | 394 kts | 163° |
| 2026-05-05 03:11 | 0.81390 | 104.54391 | 15619 ft | 396 kts | 163° |
| 2026-05-05 03:11 | 0.78731 | 104.55130 | 15941 ft | 398 kts | 163° |
| 2026-05-05 03:11 | 0.76061 | 104.55872 | 16261 ft | 400 kts | 163° |
| 2026-05-05 03:11 | 0.73370 | 104.56619 | 16581 ft | 401 kts | 163° |
| 2026-05-05 03:12 | 0.71549 | 104.57126 | 16797 ft | 403 kts | 163° |
| 2026-05-05 03:12 | 0.68844 | 104.57877 | 17116 ft | 405 kts | 163° |
| 2026-05-05 03:12 | 0.65239 | 104.58881 | 17519 ft | 407 kts | 163° |
| 2026-05-05 03:12 | 0.63434 | 104.59408 | 17737 ft | 408 kts | 162° |
| 2026-05-05 03:13 | 0.60700 | 104.60228 | 18043 ft | 410 kts | 162° |
| 2026-05-05 03:13 | 0.57955 | 104.61051 | 18310 ft | 412 kts | 162° |
| 2026-05-05 03:13 | 0.55197 | 104.61877 | 18576 ft | 414 kts | 162° |
| 2026-05-05 03:13 | 0.52433 | 104.62704 | 18839 ft | 415 kts | 162° |
| 2026-05-05 03:14 | 0.49733 | 104.63735 | 19086 ft | 416 kts | 152° |
| 2026-05-05 03:14 | 0.47311 | 104.65304 | 19339 ft | 415 kts | 139° |
| 2026-05-05 03:14 | 0.45334 | 104.67396 | 19597 ft | 415 kts | 125° |
| 2026-05-05 03:14 | 0.43785 | 104.69830 | 19854 ft | 416 kts | 119° |
| 2026-05-05 03:15 | 0.42347 | 104.72345 | 20107 ft | 417 kts | 119° |
| 2026-05-05 03:15 | 0.40910 | 104.74872 | 20365 ft | 419 kts | 119° |
| 2026-05-05 03:15 | 0.39461 | 104.77403 | 20624 ft | 420 kts | 119° |
| 2026-05-05 03:15 | 0.38003 | 104.79941 | 20847 ft | 422 kts | 119° |
| 2026-05-05 03:16 | 0.36554 | 104.82454 | 21088 ft | 423 kts | 119° |
| 2026-05-05 03:16 | 0.35081 | 104.85008 | 21339 ft | 425 kts | 119° |
| 2026-05-05 03:16 | 0.33601 | 104.87570 | 21561 ft | 426 kts | 119° |
| 2026-05-05 03:16 | 0.32115 | 104.90141 | 21803 ft | 428 kts | 119° |
| 2026-05-05 03:17 | 0.30624 | 104.92721 | 22029 ft | 429 kts | 119° |
| 2026-05-05 03:17 | 0.29127 | 104.95312 | 22265 ft | 431 kts | 119° |
| 2026-05-05 03:17 | 0.27627 | 104.97908 | 22470 ft | 432 kts | 119° |
| 2026-05-05 03:17 | 0.26115 | 105.00523 | 22703 ft | 434 kts | 119° |
| 2026-05-05 03:18 | 0.24603 | 105.03139 | 22904 ft | 435 kts | 119° |
| 2026-05-05 03:18 | 0.23091 | 105.05766 | 23128 ft | 437 kts | 119° |
| 2026-05-05 03:18 | 0.21571 | 105.08398 | 23339 ft | 438 kts | 119° |
| 2026-05-05 03:18 | 0.20040 | 105.11041 | 23533 ft | 440 kts | 119° |
| 2026-05-05 03:19 | 0.16965 | 105.16351 | 23881 ft | 443 kts | 119° |
| 2026-05-05 03:19 | 0.15421 | 105.19018 | 24051 ft | 444 kts | 119° |
| 2026-05-05 03:19 | 0.13874 | 105.21692 | 24223 ft | 445 kts | 119° |
| 2026-05-05 03:20 | 0.12322 | 105.24375 | 24404 ft | 446 kts | 119° |
| 2026-05-05 03:20 | 0.10768 | 105.27061 | 24572 ft | 447 kts | 119° |
| 2026-05-05 03:20 | 0.09208 | 105.29759 | 24740 ft | 448 kts | 119° |
| 2026-05-05 03:20 | 0.07668 | 105.32423 | 24911 ft | 449 kts | 119° |
| 2026-05-05 03:21 | 0.06101 | 105.35132 | 25088 ft | 450 kts | 119° |
| 2026-05-05 03:21 | 0.04532 | 105.37846 | 25240 ft | 452 kts | 119° |
| 2026-05-05 03:21 | 0.02957 | 105.40569 | 25409 ft | 453 kts | 119° |
| 2026-05-05 03:21 | 0.01379 | 105.43297 | 25580 ft | 454 kts | 119° |
| 2026-05-05 03:22 | -0.00203 | 105.46033 | 25737 ft | 455 kts | 119° |
| 2026-05-05 03:22 | -0.01790 | 105.48778 | 25905 ft | 457 kts | 119° |
| 2026-05-05 03:22 | -0.03382 | 105.51530 | 26055 ft | 458 kts | 119° |
| 2026-05-05 03:22 | -0.04980 | 105.54294 | 26220 ft | 459 kts | 119° |
| 2026-05-05 03:23 | -0.06581 | 105.57063 | 26388 ft | 460 kts | 119° |
| 2026-05-05 03:23 | -0.08186 | 105.59838 | 26567 ft | 462 kts | 119° |
| 2026-05-05 03:23 | -0.09797 | 105.62624 | 26721 ft | 463 kts | 119° |
| 2026-05-05 03:23 | -0.11412 | 105.65417 | 26895 ft | 464 kts | 119° |
| 2026-05-05 03:24 | -0.13011 | 105.68181 | 27050 ft | 465 kts | 119° |
| 2026-05-05 03:24 | -0.14635 | 105.70989 | 27220 ft | 467 kts | 119° |
| 2026-05-05 03:24 | -0.16263 | 105.73805 | 27397 ft | 468 kts | 119° |
| 2026-05-05 03:24 | -0.17894 | 105.76625 | 27565 ft | 469 kts | 119° |
| 2026-05-05 03:25 | -0.19535 | 105.79463 | 27733 ft | 470 kts | 119° |
| 2026-05-05 03:25 | -0.21175 | 105.82299 | 27908 ft | 472 kts | 119° |
| 2026-05-05 03:25 | -0.22817 | 105.85138 | 28070 ft | 473 kts | 119° |
| 2026-05-05 03:25 | -0.24445 | 105.87954 | 28240 ft | 474 kts | 119° |
| 2026-05-05 03:26 | -0.26099 | 105.90813 | 28388 ft | 476 kts | 119° |
| 2026-05-05 03:26 | -0.27759 | 105.93684 | 28559 ft | 477 kts | 119° |
| 2026-05-05 03:26 | -0.29424 | 105.96563 | 28725 ft | 478 kts | 119° |
| 2026-05-05 03:26 | -0.31089 | 105.99443 | 28898 ft | 479 kts | 119° |
| 2026-05-05 03:27 | -0.32760 | 106.02332 | 29060 ft | 480 kts | 119° |
| 2026-05-05 03:27 | -0.34436 | 106.05230 | 29204 ft | 482 kts | 119° |
| 2026-05-05 03:27 | -0.36113 | 106.08132 | 29384 ft | 483 kts | 119° |
| 2026-05-05 03:27 | -0.37776 | 106.11007 | 29547 ft | 484 kts | 119° |
| 2026-05-05 03:28 | -0.39463 | 106.13924 | 29724 ft | 485 kts | 119° |
| 2026-05-05 03:28 | -0.41153 | 106.16847 | 29883 ft | 487 kts | 119° |
| 2026-05-05 03:28 | -0.42848 | 106.19779 | 30030 ft | 488 kts | 120° |
| 2026-05-05 03:28 | -0.44549 | 106.22722 | 30164 ft | 489 kts | 119° |
| 2026-05-05 03:29 | -0.46252 | 106.25667 | 30306 ft | 491 kts | 120° |
| 2026-05-05 03:29 | -0.47960 | 106.28621 | 30458 ft | 492 kts | 119° |
| 2026-05-05 03:29 | -0.49672 | 106.31582 | 30603 ft | 493 kts | 119° |
| 2026-05-05 03:29 | -0.51392 | 106.34556 | 30753 ft | 494 kts | 119° |
| 2026-05-05 03:30 | -0.53112 | 106.37532 | 30895 ft | 495 kts | 119° |
| 2026-05-05 03:30 | -0.54835 | 106.40512 | 31050 ft | 496 kts | 119° |
| 2026-05-05 03:30 | -0.56562 | 106.43498 | 31202 ft | 497 kts | 119° |
| 2026-05-05 03:30 | -0.58292 | 106.46491 | 31339 ft | 498 kts | 119° |
| 2026-05-05 03:31 | -0.60027 | 106.49489 | 31469 ft | 499 kts | 119° |
| 2026-05-05 03:31 | -0.61955 | 106.52383 | 31615 ft | 501 kts | 127° |
| 2026-05-05 03:31 | -0.64161 | 106.55082 | 31748 ft | 502 kts | 129° |
| 2026-05-05 03:31 | -0.66443 | 106.57731 | 31866 ft | 503 kts | 130° |
| 2026-05-05 03:32 | -0.68758 | 106.60353 | 32007 ft | 504 kts | 131° |
| 2026-05-05 03:32 | -0.71095 | 106.62970 | 32129 ft | 505 kts | 131° |
| 2026-05-05 03:32 | -0.73435 | 106.65583 | 32328 ft | 504 kts | 131° |
| 2026-05-05 03:32 | -0.75770 | 106.68195 | 32525 ft | 503 kts | 131° |
| 2026-05-05 03:33 | -0.78099 | 106.70806 | 32731 ft | 502 kts | 131° |
| 2026-05-05 03:33 | -0.80418 | 106.73413 | 32932 ft | 502 kts | 131° |
| 2026-05-05 03:33 | -0.82733 | 106.76021 | 33150 ft | 501 kts | 130° |
| 2026-05-05 03:33 | -0.85013 | 106.78590 | 33380 ft | 500 kts | 130° |
| 2026-05-05 03:34 | -0.87314 | 106.81185 | 33604 ft | 499 kts | 130° |
| 2026-05-05 03:34 | -0.89617 | 106.83782 | 33840 ft | 498 kts | 130° |
| 2026-05-05 03:34 | -0.91912 | 106.86370 | 34069 ft | 497 kts | 130° |
| 2026-05-05 03:34 | -0.94206 | 106.88956 | 34252 ft | 496 kts | 130° |
| 2026-05-05 03:35 | -0.96499 | 106.91542 | 34466 ft | 496 kts | 130° |
| 2026-05-05 03:35 | -0.98787 | 106.94122 | 34647 ft | 496 kts | 130° |
| 2026-05-05 03:35 | -1.01074 | 106.96701 | 34850 ft | 496 kts | 130° |
| 2026-05-05 03:35 | -1.03370 | 106.99289 | 35056 ft | 495 kts | 130° |
| 2026-05-05 03:36 | -1.05654 | 107.01864 | 35283 ft | 495 kts | 130° |
| 2026-05-05 03:36 | -1.07937 | 107.04439 | 35508 ft | 494 kts | 130° |
| 2026-05-05 03:36 | -1.10216 | 107.07009 | 35717 ft | 494 kts | 131° |
| 2026-05-05 03:36 | -1.12494 | 107.09578 | 35940 ft | 493 kts | 131° |
| 2026-05-05 03:37 | -1.14767 | 107.12141 | 36171 ft | 493 kts | 131° |
| 2026-05-05 03:37 | -1.17010 | 107.14670 | 36393 ft | 492 kts | 131° |
| 2026-05-05 03:37 | -1.19277 | 107.17227 | 36631 ft | 491 kts | 131° |
| 2026-05-05 03:37 | -1.21544 | 107.19783 | 36872 ft | 490 kts | 131° |
| 2026-05-05 03:38 | -1.23803 | 107.22331 | 37124 ft | 489 kts | 131° |
| 2026-05-05 03:38 | -1.26059 | 107.24875 | 37353 ft | 488 kts | 131° |
| 2026-05-05 03:38 | -1.28311 | 107.27415 | 37577 ft | 488 kts | 131° |
| 2026-05-05 03:38 | -1.30565 | 107.29957 | 37805 ft | 487 kts | 131° |
| 2026-05-05 03:39 | -1.32812 | 107.32491 | 37994 ft | 487 kts | 131° |
| 2026-05-05 03:39 | -1.35059 | 107.35026 | 38204 ft | 487 kts | 131° |
| 2026-05-05 03:39 | -1.37302 | 107.37558 | 38398 ft | 486 kts | 131° |
| 2026-05-05 03:39 | -1.39529 | 107.40103 | 38587 ft | 486 kts | 130° |
| 2026-05-05 03:40 | -1.41738 | 107.42662 | 38740 ft | 486 kts | 130° |
| 2026-05-05 03:40 | -1.43940 | 107.45227 | 38867 ft | 487 kts | 130° |
| 2026-05-05 03:40 | -1.48355 | 107.50370 | 38905 ft | 488 kts | 130° |
| 2026-05-05 03:41 | -1.52760 | 107.55485 | 38904 ft | 489 kts | 130° |
| 2026-05-05 03:41 | -1.57200 | 107.60632 | 38889 ft | 489 kts | 130° |
| 2026-05-05 03:42 | -1.61643 | 107.65780 | 38899 ft | 489 kts | 130° |
| 2026-05-05 03:42 | -1.66088 | 107.70930 | 38904 ft | 489 kts | 130° |
| 2026-05-05 03:43 | -1.70535 | 107.76083 | 38900 ft | 489 kts | 130° |
| 2026-05-05 03:43 | -1.74982 | 107.81238 | 38904 ft | 489 kts | 130° |
| 2026-05-05 03:44 | -1.79394 | 107.86352 | 38890 ft | 489 kts | 130° |
| 2026-05-05 03:44 | -1.83842 | 107.91509 | 38902 ft | 489 kts | 130° |
| 2026-05-05 03:45 | -1.88284 | 107.96659 | 38901 ft | 489 kts | 130° |
| 2026-05-05 03:45 | -1.92724 | 108.01808 | 38898 ft | 489 kts | 130° |
| 2026-05-05 03:46 | -1.97162 | 108.06953 | 38897 ft | 489 kts | 130° |
| 2026-05-05 03:46 | -2.01600 | 108.12100 | 38897 ft | 489 kts | 130° |
| 2026-05-05 03:47 | -2.06038 | 108.17248 | 38897 ft | 488 kts | 130° |
| 2026-05-05 03:47 | -2.10449 | 108.22364 | 38897 ft | 488 kts | 130° |
| 2026-05-05 03:48 | -2.14888 | 108.27506 | 38895 ft | 488 kts | 130° |
| 2026-05-05 03:48 | -2.19329 | 108.32651 | 38895 ft | 488 kts | 130° |
| 2026-05-05 03:49 | -2.23764 | 108.37793 | 38895 ft | 488 kts | 130° |
| 2026-05-05 03:49 | -2.28199 | 108.42934 | 38894 ft | 488 kts | 130° |
| 2026-05-05 03:50 | -2.32631 | 108.48073 | 38893 ft | 487 kts | 130° |
| 2026-05-05 03:50 | -2.37033 | 108.53179 | 38898 ft | 487 kts | 130° |
| 2026-05-05 03:51 | -2.41464 | 108.58317 | 38897 ft | 487 kts | 130° |
| 2026-05-05 03:51 | -2.45894 | 108.63455 | 38894 ft | 487 kts | 130° |
| 2026-05-05 03:52 | -2.50320 | 108.68593 | 38895 ft | 487 kts | 130° |
| 2026-05-05 03:52 | -2.54725 | 108.73688 | 38897 ft | 487 kts | 130° |
| 2026-05-05 03:53 | -2.59189 | 108.78839 | 38895 ft | 487 kts | 130° |
| 2026-05-05 03:53 | -2.63594 | 108.83926 | 38897 ft | 487 kts | 130° |
| 2026-05-05 03:54 | -2.68026 | 108.89049 | 38894 ft | 487 kts | 130° |
| 2026-05-05 03:54 | -2.72466 | 108.94184 | 38894 ft | 487 kts | 130° |
| 2026-05-05 03:55 | -2.76904 | 108.99316 | 38898 ft | 488 kts | 130° |
| 2026-05-05 03:55 | -2.81348 | 109.04455 | 38895 ft | 488 kts | 130° |
| 2026-05-05 03:56 | -2.85790 | 109.09595 | 38891 ft | 488 kts | 130° |
| 2026-05-05 03:56 | -2.90229 | 109.14733 | 38893 ft | 488 kts | 130° |
| 2026-05-05 03:57 | -2.94632 | 109.19846 | 38894 ft | 488 kts | 130° |
| 2026-05-05 03:57 | -2.99071 | 109.25005 | 38892 ft | 488 kts | 130° |
| 2026-05-05 03:58 | -3.02757 | 109.29289 | 38892 ft | 488 kts | 130° |
| 2026-05-05 03:58 | -3.07198 | 109.34449 | 38889 ft | 488 kts | 130° |
| 2026-05-05 03:59 | -3.11629 | 109.39598 | 38891 ft | 488 kts | 130° |
| 2026-05-05 03:59 | -3.16062 | 109.44751 | 38897 ft | 488 kts | 130° |
| 2026-05-05 04:00 | -3.20470 | 109.49876 | 38897 ft | 488 kts | 130° |
| 2026-05-05 04:00 | -3.24900 | 109.55026 | 38893 ft | 488 kts | 130° |
| 2026-05-05 04:01 | -3.29323 | 109.60170 | 38893 ft | 487 kts | 130° |
| 2026-05-05 04:01 | -3.33754 | 109.65322 | 38895 ft | 487 kts | 130° |
| 2026-05-05 04:02 | -3.38179 | 109.70470 | 38893 ft | 487 kts | 130° |
| 2026-05-05 04:02 | -3.42598 | 109.75611 | 38892 ft | 487 kts | 130° |
| 2026-05-05 04:03 | -3.46993 | 109.80724 | 38897 ft | 487 kts | 130° |
| 2026-05-05 04:03 | -3.51414 | 109.85870 | 38891 ft | 487 kts | 130° |
| 2026-05-05 04:04 | -3.55839 | 109.91020 | 38887 ft | 487 kts | 130° |
| 2026-05-05 04:04 | -3.60256 | 109.96163 | 38892 ft | 487 kts | 130° |
| 2026-05-05 04:05 | -3.64670 | 110.01301 | 38890 ft | 487 kts | 130° |
| 2026-05-05 04:05 | -3.69097 | 110.06456 | 38892 ft | 488 kts | 130° |
| 2026-05-05 04:06 | -3.73524 | 110.11613 | 38890 ft | 489 kts | 130° |
| 2026-05-05 04:06 | -3.77939 | 110.16756 | 38892 ft | 490 kts | 130° |
| 2026-05-05 04:07 | -3.82389 | 110.21941 | 38894 ft | 491 kts | 129° |
| 2026-05-05 04:07 | -3.86843 | 110.27132 | 38888 ft | 492 kts | 130° |
| 2026-05-05 04:08 | -3.91316 | 110.32345 | 38888 ft | 493 kts | 130° |
| 2026-05-05 04:08 | -3.95792 | 110.37564 | 38891 ft | 494 kts | 129° |
| 2026-05-05 04:09 | -4.00127 | 110.42846 | 38894 ft | 494 kts | 127° |
| 2026-05-05 04:09 | -4.04279 | 110.48328 | 38890 ft | 494 kts | 126° |
| 2026-05-05 04:10 | -4.08436 | 110.53822 | 38890 ft | 494 kts | 126° |
| 2026-05-05 04:10 | -4.12624 | 110.59283 | 38891 ft | 494 kts | 126° |
| 2026-05-05 04:11 | -4.16836 | 110.64740 | 38887 ft | 495 kts | 126° |
| 2026-05-05 04:11 | -4.21051 | 110.70198 | 38890 ft | 495 kts | 126° |
| 2026-05-05 04:12 | -4.25240 | 110.75625 | 38891 ft | 495 kts | 126° |
| 2026-05-05 04:12 | -4.29466 | 110.81104 | 38888 ft | 496 kts | 126° |
| 2026-05-05 04:13 | -4.33693 | 110.86585 | 38886 ft | 497 kts | 126° |
| 2026-05-05 04:13 | -4.37921 | 110.92069 | 38886 ft | 497 kts | 126° |
| 2026-05-05 04:14 | -4.42151 | 110.97557 | 38887 ft | 497 kts | 126° |
| 2026-05-05 04:14 | -4.46354 | 111.03009 | 38884 ft | 497 kts | 126° |
| 2026-05-05 04:15 | -4.50578 | 111.08492 | 38884 ft | 497 kts | 126° |
| 2026-05-05 04:15 | -4.54806 | 111.13980 | 38883 ft | 496 kts | 126° |
| 2026-05-05 04:16 | -4.59021 | 111.19454 | 38882 ft | 495 kts | 126° |
| 2026-05-05 04:16 | -4.63233 | 111.24926 | 38880 ft | 495 kts | 126° |
| 2026-05-05 04:17 | -4.67452 | 111.30374 | 38882 ft | 494 kts | 127° |
| 2026-05-05 04:17 | -4.71650 | 111.35775 | 38882 ft | 494 kts | 126° |
| 2026-05-05 04:18 | -4.75866 | 111.41209 | 38884 ft | 493 kts | 126° |
| 2026-05-05 04:18 | -4.80076 | 111.46644 | 38882 ft | 493 kts | 126° |
| 2026-05-05 04:19 | -4.84291 | 111.52087 | 38882 ft | 494 kts | 126° |
| 2026-05-05 04:19 | -4.88504 | 111.57529 | 38883 ft | 494 kts | 126° |
| 2026-05-05 04:20 | -4.92721 | 111.62979 | 38883 ft | 495 kts | 126° |
| 2026-05-05 04:20 | -4.96946 | 111.68435 | 38881 ft | 495 kts | 126° |
| 2026-05-05 04:21 | -5.01173 | 111.73898 | 38883 ft | 496 kts | 126° |
| 2026-05-05 04:21 | -5.05406 | 111.79370 | 38869 ft | 496 kts | 126° |
| 2026-05-05 04:22 | -5.09632 | 111.84838 | 38884 ft | 496 kts | 126° |
| 2026-05-05 04:22 | -5.13834 | 111.90273 | 38872 ft | 497 kts | 126° |
| 2026-05-05 04:23 | -5.18072 | 111.95754 | 38887 ft | 497 kts | 126° |
| 2026-05-05 04:23 | -5.22312 | 112.01240 | 38870 ft | 497 kts | 126° |
| 2026-05-05 04:24 | -5.26554 | 112.06731 | 38872 ft | 498 kts | 127° |
| 2026-05-05 04:25 | -5.32935 | 112.14992 | 38888 ft | 499 kts | 127° |
| 2026-05-05 04:25 | -5.37169 | 112.20476 | 38884 ft | 500 kts | 127° |
| 2026-05-05 04:26 | -5.41429 | 112.25995 | 38871 ft | 500 kts | 127° |
| 2026-05-05 04:26 | -5.45695 | 112.31524 | 38871 ft | 501 kts | 127° |
| 2026-05-05 04:27 | -5.49966 | 112.37060 | 38890 ft | 501 kts | 127° |
| 2026-05-05 04:27 | -5.54237 | 112.42597 | 38872 ft | 502 kts | 127° |
| 2026-05-05 04:28 | -5.58512 | 112.48140 | 38890 ft | 502 kts | 127° |
| 2026-05-05 04:28 | -5.62790 | 112.53690 | 38874 ft | 502 kts | 127° |
| 2026-05-05 04:29 | -5.67039 | 112.59203 | 38890 ft | 502 kts | 127° |
| 2026-05-05 04:29 | -5.71314 | 112.64751 | 38876 ft | 502 kts | 127° |
| 2026-05-05 04:30 | -5.75593 | 112.70308 | 38874 ft | 502 kts | 127° |
| 2026-05-05 04:30 | -5.79863 | 112.75853 | 38880 ft | 501 kts | 127° |
| 2026-05-05 04:31 | -5.84129 | 112.81394 | 38877 ft | 501 kts | 127° |
| 2026-05-05 04:31 | -5.88390 | 112.86930 | 38894 ft | 501 kts | 127° |
| 2026-05-05 04:32 | -5.92625 | 112.92434 | 38889 ft | 501 kts | 127° |
| 2026-05-05 04:32 | -5.96887 | 112.97975 | 38876 ft | 501 kts | 127° |
| 2026-05-05 04:33 | -6.01144 | 113.03511 | 38878 ft | 500 kts | 127° |
| 2026-05-05 04:33 | -6.05401 | 113.09049 | 38879 ft | 500 kts | 127° |
| 2026-05-05 04:34 | -6.09661 | 113.14592 | 38879 ft | 500 kts | 127° |
| 2026-05-05 04:34 | -6.13889 | 113.20094 | 38875 ft | 500 kts | 128° |
| 2026-05-05 04:35 | -6.18141 | 113.25631 | 38876 ft | 500 kts | 127° |
| 2026-05-05 04:35 | -6.22394 | 113.31169 | 38877 ft | 500 kts | 127° |
| 2026-05-05 04:36 | -6.27275 | 113.36137 | 38893 ft | 499 kts | 142° |
| 2026-05-05 04:36 | -6.32841 | 113.40328 | 38880 ft | 499 kts | 144° |
| 2026-05-05 04:37 | -6.38462 | 113.44351 | 38882 ft | 499 kts | 145° |
| 2026-05-05 04:37 | -6.44119 | 113.48392 | 38881 ft | 499 kts | 144° |
| 2026-05-05 04:38 | -6.49759 | 113.52448 | 38881 ft | 499 kts | 144° |
| 2026-05-05 04:38 | -6.55400 | 113.56522 | 38880 ft | 498 kts | 144° |
| 2026-05-05 04:39 | -6.61035 | 113.60596 | 38886 ft | 499 kts | 144° |
| 2026-05-05 04:39 | -6.66673 | 113.64671 | 38884 ft | 498 kts | 144° |
| 2026-05-05 04:40 | -6.72273 | 113.68719 | 38885 ft | 498 kts | 144° |
| 2026-05-05 04:40 | -6.77906 | 113.72792 | 38885 ft | 498 kts | 144° |
| 2026-05-05 04:41 | -6.83534 | 113.76864 | 38890 ft | 498 kts | 144° |
| 2026-05-05 04:41 | -6.89157 | 113.80932 | 38888 ft | 497 kts | 144° |
| 2026-05-05 04:42 | -6.94771 | 113.84996 | 38888 ft | 497 kts | 144° |
| 2026-05-05 04:42 | -7.00389 | 113.89064 | 38888 ft | 497 kts | 144° |
| 2026-05-05 04:43 | -7.06005 | 113.93139 | 38892 ft | 497 kts | 144° |
| 2026-05-05 04:43 | -7.11587 | 113.97185 | 38889 ft | 497 kts | 144° |
| 2026-05-05 04:44 | -7.17201 | 114.01254 | 38891 ft | 497 kts | 144° |
| 2026-05-05 04:44 | -7.22814 | 114.05326 | 38886 ft | 497 kts | 144° |
| 2026-05-05 04:45 | -7.28426 | 114.09400 | 38889 ft | 497 kts | 144° |
| 2026-05-05 04:45 | -7.33088 | 114.12785 | 38884 ft | 497 kts | 144° |
| 2026-05-05 04:46 | -7.38706 | 114.16865 | 38881 ft | 497 kts | 144° |
| 2026-05-05 04:46 | -7.44311 | 114.20937 | 38886 ft | 497 kts | 144° |
| 2026-05-05 04:47 | -7.49917 | 114.25011 | 38884 ft | 496 kts | 144° |
| 2026-05-05 04:47 | -7.55516 | 114.29082 | 38888 ft | 496 kts | 144° |
| 2026-05-05 04:48 | -7.61119 | 114.33157 | 38887 ft | 497 kts | 144° |
| 2026-05-05 04:48 | -7.66719 | 114.37231 | 38890 ft | 497 kts | 144° |
| 2026-05-05 04:49 | -7.72292 | 114.41287 | 38895 ft | 496 kts | 145° |
| 2026-05-05 04:49 | -7.77887 | 114.45359 | 38893 ft | 495 kts | 145° |
| 2026-05-05 04:50 | -7.83487 | 114.49437 | 38894 ft | 495 kts | 145° |
| 2026-05-05 04:50 | -7.89030 | 114.53475 | 38893 ft | 494 kts | 145° |
| 2026-05-05 04:51 | -7.94602 | 114.57535 | 38892 ft | 493 kts | 145° |
| 2026-05-05 04:51 | -8.00165 | 114.61589 | 38890 ft | 493 kts | 145° |
| 2026-05-05 04:52 | -8.05721 | 114.65641 | 38893 ft | 492 kts | 145° |
| 2026-05-05 04:52 | -8.11273 | 114.69692 | 38895 ft | 492 kts | 145° |
| 2026-05-05 04:53 | -8.16821 | 114.73740 | 38896 ft | 492 kts | 145° |
| 2026-05-05 04:53 | -8.22375 | 114.77793 | 38893 ft | 492 kts | 145° |
| 2026-05-05 04:54 | -8.27921 | 114.81843 | 38898 ft | 492 kts | 145° |
| 2026-05-05 04:54 | -8.33465 | 114.85894 | 38895 ft | 492 kts | 145° |
| 2026-05-05 04:55 | -8.39007 | 114.89944 | 38900 ft | 492 kts | 146° |
| 2026-05-05 04:55 | -8.44513 | 114.93968 | 38900 ft | 492 kts | 146° |
| 2026-05-05 04:56 | -8.50052 | 114.98017 | 38892 ft | 492 kts | 146° |
| 2026-05-05 04:56 | -8.55599 | 115.02075 | 38892 ft | 492 kts | 146° |
| 2026-05-05 04:57 | -8.61148 | 115.06137 | 38885 ft | 492 kts | 146° |
| 2026-05-05 04:57 | -8.66695 | 115.10198 | 38884 ft | 492 kts | 146° |
| 2026-05-05 04:58 | -8.72203 | 115.14231 | 38883 ft | 492 kts | 146° |
| 2026-05-05 04:58 | -8.77507 | 115.18635 | 38884 ft | 493 kts | 139° |
| 2026-05-05 04:59 | -8.82574 | 115.23331 | 38883 ft | 494 kts | 139° |
| 2026-05-05 04:59 | -8.87567 | 115.28038 | 38887 ft | 494 kts | 138° |
| 2026-05-05 05:00 | -8.92593 | 115.32777 | 38889 ft | 494 kts | 139° |
| 2026-05-05 05:00 | -8.97629 | 115.37514 | 38890 ft | 494 kts | 139° |
| 2026-05-05 05:01 | -9.02667 | 115.42250 | 38892 ft | 494 kts | 139° |
| 2026-05-05 05:01 | -9.07706 | 115.46987 | 38898 ft | 494 kts | 139° |
| 2026-05-05 05:02 | -9.12745 | 115.51727 | 38893 ft | 495 kts | 139° |
| 2026-05-05 05:02 | -9.17787 | 115.56472 | 38889 ft | 495 kts | 139° |
| 2026-05-05 05:03 | -9.22833 | 115.61222 | 38893 ft | 495 kts | 139° |
| 2026-05-05 05:03 | -9.27878 | 115.65974 | 38904 ft | 495 kts | 139° |
| 2026-05-05 05:04 | -9.32890 | 115.70696 | 38896 ft | 495 kts | 139° |
| 2026-05-05 05:04 | -9.37931 | 115.75448 | 38894 ft | 496 kts | 139° |
| 2026-05-05 05:05 | -9.42983 | 115.80212 | 38895 ft | 496 kts | 139° |
| 2026-05-05 05:05 | -9.48033 | 115.84976 | 38893 ft | 496 kts | 139° |
| 2026-05-05 05:06 | -9.53092 | 115.89750 | 38894 ft | 496 kts | 139° |
| 2026-05-05 05:06 | -9.58149 | 115.94526 | 38897 ft | 497 kts | 139° |
| 2026-05-05 05:07 | -9.63210 | 115.99306 | 38895 ft | 497 kts | 139° |
| 2026-05-05 05:07 | -9.68270 | 116.04088 | 38898 ft | 497 kts | 139° |
| 2026-05-05 05:08 | -9.73335 | 116.08876 | 38897 ft | 498 kts | 139° |
| 2026-05-05 05:08 | -9.78405 | 116.13672 | 38895 ft | 498 kts | 139° |
| 2026-05-05 05:09 | -9.83437 | 116.18434 | 38896 ft | 498 kts | 139° |
| 2026-05-05 05:09 | -9.88507 | 116.23233 | 38898 ft | 498 kts | 139° |
| 2026-05-05 05:10 | -9.93577 | 116.28034 | 38896 ft | 498 kts | 139° |
| 2026-05-05 05:10 | -9.98649 | 116.32841 | 38901 ft | 498 kts | 139° |
| 2026-05-05 05:11 | -10.03721 | 116.37649 | 38900 ft | 499 kts | 139° |
| 2026-05-05 05:11 | -10.08795 | 116.42460 | 38900 ft | 499 kts | 139° |
| 2026-05-05 05:12 | -10.13866 | 116.47272 | 38901 ft | 499 kts | 139° |
| 2026-05-05 05:12 | -10.18901 | 116.52051 | 38902 ft | 499 kts | 139° |
| 2026-05-05 05:13 | -10.23973 | 116.56868 | 38900 ft | 499 kts | 139° |
| 2026-05-05 05:13 | -10.29045 | 116.61686 | 38901 ft | 499 kts | 140° |
| 2026-05-05 05:14 | -10.34117 | 116.66507 | 38902 ft | 499 kts | 140° |
| 2026-05-05 05:14 | -10.39193 | 116.71334 | 38903 ft | 499 kts | 140° |
| 2026-05-05 05:15 | -10.44236 | 116.76132 | 38904 ft | 499 kts | 140° |
| 2026-05-05 05:15 | -10.49309 | 116.80961 | 38901 ft | 499 kts | 140° |
| 2026-05-05 05:16 | -10.54380 | 116.85790 | 38901 ft | 499 kts | 140° |
| 2026-05-05 05:16 | -10.59448 | 116.90618 | 38897 ft | 499 kts | 140° |
| 2026-05-05 05:17 | -10.64514 | 116.95448 | 38908 ft | 500 kts | 140° |
| 2026-05-05 05:17 | -10.69555 | 117.00255 | 38903 ft | 500 kts | 140° |
| 2026-05-05 05:18 | -10.74630 | 117.05097 | 38906 ft | 500 kts | 140° |
| 2026-05-05 05:18 | -10.79707 | 117.09944 | 38902 ft | 500 kts | 140° |
| 2026-05-05 05:19 | -10.84789 | 117.14797 | 38905 ft | 500 kts | 140° |
| 2026-05-05 05:19 | -10.89831 | 117.19615 | 38904 ft | 500 kts | 140° |
| 2026-05-05 05:20 | -10.94907 | 117.24467 | 38906 ft | 500 kts | 140° |
| 2026-05-05 05:20 | -10.99979 | 117.29318 | 38905 ft | 500 kts | 140° |
| 2026-05-05 05:21 | -11.05051 | 117.34171 | 38902 ft | 500 kts | 140° |
| 2026-05-05 05:21 | -11.10122 | 117.39027 | 38907 ft | 500 kts | 140° |
| 2026-05-05 05:22 | -11.15169 | 117.43860 | 38905 ft | 500 kts | 140° |
| 2026-05-05 05:22 | -11.20243 | 117.48723 | 38904 ft | 500 kts | 140° |
| 2026-05-05 05:23 | -11.25309 | 117.53581 | 38900 ft | 500 kts | 140° |
| 2026-05-05 05:23 | -11.30380 | 117.58446 | 38903 ft | 501 kts | 140° |
| 2026-05-05 05:24 | -11.35457 | 117.63318 | 38898 ft | 501 kts | 140° |
| 2026-05-05 05:24 | -11.40532 | 117.68192 | 38899 ft | 501 kts | 140° |
| 2026-05-05 05:25 | -11.45576 | 117.73039 | 38907 ft | 502 kts | 140° |
| 2026-05-05 05:25 | -11.50652 | 117.77918 | 38902 ft | 502 kts | 140° |
| 2026-05-05 05:26 | -11.55732 | 117.82804 | 38909 ft | 502 kts | 140° |
| 2026-05-05 05:26 | -11.60815 | 117.87695 | 38911 ft | 502 kts | 140° |
| 2026-05-05 05:27 | -11.65906 | 117.92597 | 38913 ft | 503 kts | 140° |
| 2026-05-05 05:27 | -11.73543 | 117.99955 | 38907 ft | 503 kts | 140° |
| 2026-05-05 05:28 | -11.78638 | 118.04866 | 38906 ft | 503 kts | 140° |
| 2026-05-05 05:28 | -11.83708 | 118.09755 | 38904 ft | 506 kts | 140° |
| 2026-05-05 05:29 | -11.88845 | 118.14711 | 38912 ft | 510 kts | 140° |
| 2026-05-05 05:29 | -11.93997 | 118.19688 | 38908 ft | 510 kts | 140° |
| 2026-05-05 05:30 | -11.99157 | 118.24676 | 38908 ft | 510 kts | 140° |
| 2026-05-05 05:30 | -12.04316 | 118.29666 | 38910 ft | 510 kts | 140° |
| 2026-05-05 05:31 | -12.09471 | 118.34651 | 38903 ft | 511 kts | 140° |
| 2026-05-05 05:31 | -12.14631 | 118.39644 | 38909 ft | 511 kts | 140° |
| 2026-05-05 05:32 | -12.19795 | 118.44645 | 38912 ft | 511 kts | 140° |
| 2026-05-05 05:32 | -12.24926 | 118.49616 | 38903 ft | 511 kts | 140° |
| 2026-05-05 05:33 | -12.30091 | 118.54623 | 38912 ft | 511 kts | 140° |
| 2026-05-05 05:33 | -12.35252 | 118.59630 | 38915 ft | 512 kts | 140° |
| 2026-05-05 05:34 | -12.40414 | 118.64640 | 38909 ft | 512 kts | 140° |
| 2026-05-05 05:34 | -12.45585 | 118.69661 | 38909 ft | 512 kts | 140° |
| 2026-05-05 05:35 | -12.50755 | 118.74686 | 38905 ft | 512 kts | 140° |
| 2026-05-05 05:35 | -12.55057 | 118.78868 | 38903 ft | 513 kts | 140° |
| 2026-05-05 05:36 | -12.60233 | 118.83903 | 38909 ft | 513 kts | 140° |
| 2026-05-05 05:36 | -12.65406 | 118.88938 | 38916 ft | 513 kts | 140° |
| 2026-05-05 05:37 | -12.70550 | 118.93948 | 38904 ft | 513 kts | 140° |
| 2026-05-05 05:37 | -12.75731 | 118.98996 | 38907 ft | 513 kts | 140° |
| 2026-05-05 05:38 | -12.80900 | 119.04036 | 38920 ft | 513 kts | 140° |
| 2026-05-05 05:38 | -12.86047 | 119.09059 | 38908 ft | 513 kts | 140° |
| 2026-05-05 05:39 | -12.91222 | 119.14110 | 38903 ft | 513 kts | 141° |
| 2026-05-05 05:39 | -12.96397 | 119.19165 | 38912 ft | 513 kts | 141° |
| 2026-05-05 05:40 | -13.01579 | 119.24230 | 38912 ft | 513 kts | 141° |
| 2026-05-05 05:40 | -13.06754 | 119.29291 | 38912 ft | 513 kts | 141° |
| 2026-05-05 05:41 | -13.11921 | 119.34347 | 38914 ft | 513 kts | 141° |
| 2026-05-05 05:41 | -13.17087 | 119.39406 | 38908 ft | 513 kts | 141° |
| 2026-05-05 05:42 | -13.22252 | 119.44466 | 38909 ft | 513 kts | 141° |
| 2026-05-05 05:42 | -13.27399 | 119.49512 | 38912 ft | 514 kts | 141° |
| 2026-05-05 05:43 | -13.32569 | 119.54584 | 38911 ft | 514 kts | 141° |
| 2026-05-05 05:43 | -13.37739 | 119.59658 | 38911 ft | 514 kts | 141° |
| 2026-05-05 05:44 | -13.42900 | 119.64727 | 38910 ft | 514 kts | 141° |
| 2026-05-05 05:44 | -13.48040 | 119.69780 | 38908 ft | 514 kts | 141° |
| 2026-05-05 05:45 | -13.53203 | 119.74857 | 38912 ft | 514 kts | 141° |
| 2026-05-05 05:45 | -13.58366 | 119.79938 | 38914 ft | 514 kts | 141° |
| 2026-05-05 05:46 | -13.63526 | 119.85019 | 38913 ft | 514 kts | 141° |
| 2026-05-05 05:46 | -13.68695 | 119.90111 | 38914 ft | 514 kts | 141° |
| 2026-05-05 05:47 | -13.73857 | 119.95201 | 38913 ft | 514 kts | 141° |
| 2026-05-05 05:47 | -13.79028 | 120.00302 | 38911 ft | 514 kts | 141° |
| 2026-05-05 05:48 | -13.84193 | 120.05401 | 38912 ft | 515 kts | 141° |
| 2026-05-05 05:48 | -13.89361 | 120.10506 | 38915 ft | 515 kts | 141° |
| 2026-05-05 05:49 | -13.94529 | 120.15615 | 38915 ft | 515 kts | 141° |
| 2026-05-05 05:49 | -13.99662 | 120.20692 | 38912 ft | 515 kts | 141° |
| 2026-05-05 05:50 | -14.04830 | 120.25807 | 38910 ft | 515 kts | 141° |
| 2026-05-05 05:50 | -14.10000 | 120.30928 | 38912 ft | 515 kts | 141° |
| 2026-05-05 05:51 | -14.15170 | 120.36052 | 38914 ft | 516 kts | 141° |
| 2026-05-05 05:51 | -14.20344 | 120.41184 | 38912 ft | 516 kts | 141° |
| 2026-05-05 05:52 | -14.25520 | 120.46320 | 38914 ft | 516 kts | 141° |
| 2026-05-05 05:52 | -14.30693 | 120.51458 | 38913 ft | 516 kts | 141° |
| 2026-05-05 05:53 | -14.35865 | 120.56597 | 38915 ft | 516 kts | 141° |
| 2026-05-05 05:53 | -14.41006 | 120.61710 | 38918 ft | 517 kts | 141° |
| 2026-05-05 05:54 | -14.46192 | 120.66871 | 38918 ft | 517 kts | 141° |
| 2026-05-05 05:54 | -14.51372 | 120.72029 | 38915 ft | 517 kts | 141° |
| 2026-05-05 05:55 | -14.56525 | 120.77164 | 38916 ft | 517 kts | 141° |
| 2026-05-05 05:55 | -14.61704 | 120.82328 | 38914 ft | 518 kts | 141° |
| 2026-05-05 05:56 | -14.66894 | 120.87506 | 38916 ft | 518 kts | 141° |
| 2026-05-05 05:56 | -14.72073 | 120.92678 | 38917 ft | 518 kts | 141° |
| 2026-05-05 05:57 | -14.77263 | 120.97864 | 38914 ft | 518 kts | 141° |
| 2026-05-05 05:57 | -14.82418 | 121.03019 | 38916 ft | 519 kts | 141° |
| 2026-05-05 05:58 | -14.87607 | 121.08211 | 38917 ft | 519 kts | 141° |
| 2026-05-05 05:58 | -14.92807 | 121.13418 | 38917 ft | 519 kts | 141° |
| 2026-05-05 05:59 | -14.98003 | 121.18625 | 38916 ft | 520 kts | 141° |
| 2026-05-05 05:59 | -15.03198 | 121.23834 | 38918 ft | 520 kts | 141° |
| 2026-05-05 06:00 | -15.08365 | 121.29019 | 38920 ft | 521 kts | 141° |
| 2026-05-05 06:00 | -15.13572 | 121.34248 | 38918 ft | 521 kts | 141° |
| 2026-05-05 06:01 | -15.18772 | 121.39474 | 38919 ft | 521 kts | 141° |
| 2026-05-05 06:01 | -15.23976 | 121.44707 | 38917 ft | 522 kts | 141° |
| 2026-05-05 06:02 | -15.29188 | 121.49952 | 38918 ft | 522 kts | 141° |
| 2026-05-05 06:02 | -15.34402 | 121.55203 | 38919 ft | 522 kts | 141° |
| 2026-05-05 06:03 | -15.39579 | 121.60421 | 38920 ft | 523 kts | 141° |
| 2026-05-05 06:03 | -15.44796 | 121.65683 | 38921 ft | 523 kts | 141° |
| 2026-05-05 06:04 | -15.50021 | 121.70956 | 38921 ft | 524 kts | 141° |
| 2026-05-05 06:04 | -15.55239 | 121.76227 | 38923 ft | 524 kts | 141° |
| 2026-05-05 06:05 | -15.60470 | 121.81516 | 38922 ft | 524 kts | 141° |
| 2026-05-05 06:05 | -15.65696 | 121.86802 | 38917 ft | 525 kts | 141° |
| 2026-05-05 06:06 | -15.70925 | 121.92096 | 38921 ft | 525 kts | 141° |
| 2026-05-05 06:06 | -15.76120 | 121.97358 | 38924 ft | 525 kts | 141° |
| 2026-05-05 06:07 | -15.81355 | 122.02667 | 38922 ft | 525 kts | 141° |
| 2026-05-05 06:07 | -15.86589 | 122.07977 | 38920 ft | 526 kts | 141° |
| 2026-05-05 06:08 | -15.91830 | 122.13300 | 38921 ft | 526 kts | 141° |
| 2026-05-05 06:08 | -15.97033 | 122.18588 | 38921 ft | 526 kts | 141° |
| 2026-05-05 06:09 | -16.02271 | 122.23915 | 38924 ft | 526 kts | 141° |
| 2026-05-05 06:09 | -16.07512 | 122.29250 | 38923 ft | 526 kts | 141° |
| 2026-05-05 06:10 | -16.12752 | 122.34586 | 38924 ft | 527 kts | 141° |
| 2026-05-05 06:10 | -16.17958 | 122.39894 | 38925 ft | 527 kts | 141° |
| 2026-05-05 06:11 | -16.23203 | 122.45244 | 38922 ft | 528 kts | 141° |
| 2026-05-05 06:11 | -16.28447 | 122.50599 | 38924 ft | 528 kts | 141° |
| 2026-05-05 06:12 | -16.33662 | 122.55927 | 38920 ft | 528 kts | 141° |
| 2026-05-05 06:12 | -16.38906 | 122.61290 | 38922 ft | 528 kts | 141° |
| 2026-05-05 06:13 | -16.44157 | 122.66664 | 38918 ft | 529 kts | 141° |
| 2026-05-05 06:13 | -16.49407 | 122.72041 | 38924 ft | 529 kts | 141° |
| 2026-05-05 06:14 | -16.54657 | 122.77423 | 38928 ft | 529 kts | 141° |
| 2026-05-05 06:14 | -16.59908 | 122.82811 | 38910 ft | 530 kts | 141° |
| 2026-05-05 06:15 | -16.65162 | 122.88206 | 38914 ft | 530 kts | 141° |
| 2026-05-05 06:15 | -16.70385 | 122.93572 | 38919 ft | 530 kts | 141° |
| 2026-05-05 06:16 | -16.75642 | 122.98979 | 38924 ft | 530 kts | 141° |
| 2026-05-05 06:16 | -16.80904 | 123.04394 | 38922 ft | 530 kts | 141° |
| 2026-05-05 06:17 | -16.86157 | 123.09806 | 38920 ft | 530 kts | 141° |
| 2026-05-05 06:17 | -16.91369 | 123.15180 | 38921 ft | 530 kts | 141° |
| 2026-05-05 06:18 | -16.96622 | 123.20600 | 38923 ft | 530 kts | 141° |
| 2026-05-05 06:18 | -17.01869 | 123.26018 | 38927 ft | 530 kts | 141° |
| 2026-05-05 06:19 | -17.07124 | 123.31449 | 38927 ft | 530 kts | 141° |
| 2026-05-05 06:19 | -17.12368 | 123.36874 | 38919 ft | 531 kts | 141° |
| 2026-05-05 06:20 | -17.17614 | 123.42305 | 38922 ft | 531 kts | 141° |
| 2026-05-05 06:20 | -17.22823 | 123.47703 | 38917 ft | 531 kts | 141° |
| 2026-05-05 06:21 | -17.28077 | 123.53151 | 38917 ft | 531 kts | 141° |
| 2026-05-05 06:21 | -17.33326 | 123.58599 | 38912 ft | 531 kts | 141° |
| 2026-05-05 06:22 | -17.38573 | 123.64049 | 38906 ft | 532 kts | 141° |
| 2026-05-05 06:22 | -17.43818 | 123.69503 | 38896 ft | 532 kts | 141° |
| 2026-05-05 06:23 | -17.49084 | 123.74983 | 38890 ft | 532 kts | 141° |
| 2026-05-05 06:23 | -17.53447 | 123.79526 | 38887 ft | 533 kts | 141° |
| 2026-05-05 06:24 | -17.59391 | 123.86117 | 38908 ft | 542 kts | 132° |
| 2026-05-05 06:24 | -17.61651 | 123.89285 | 39088 ft | 543 kts | 131° |
| 2026-05-05 06:24 | -17.63858 | 123.92501 | 39303 ft | 543 kts | 130° |
| 2026-05-05 06:25 | -17.66035 | 123.95736 | 39504 ft | 543 kts | 130° |
| 2026-05-05 06:25 | -17.67470 | 123.97887 | 39630 ft | 543 kts | 130° |
| 2026-05-05 06:25 | -17.69636 | 124.01140 | 39829 ft | 543 kts | 130° |
| 2026-05-05 06:25 | -17.71800 | 124.04389 | 39998 ft | 543 kts | 130° |
| 2026-05-05 06:26 | -17.73966 | 124.07634 | 40169 ft | 543 kts | 130° |
| 2026-05-05 06:26 | -17.76136 | 124.10878 | 40337 ft | 543 kts | 130° |
| 2026-05-05 06:26 | -17.78305 | 124.14117 | 40521 ft | 543 kts | 130° |
| 2026-05-05 06:26 | -17.80476 | 124.17359 | 40681 ft | 543 kts | 130° |
| 2026-05-05 06:27 | -17.82644 | 124.20596 | 40834 ft | 543 kts | 130° |
| 2026-05-05 06:27 | -17.86987 | 124.27084 | 40906 ft | 543 kts | 131° |
| 2026-05-05 06:28 | -17.91325 | 124.33574 | 40903 ft | 543 kts | 130° |
| 2026-05-05 06:28 | -17.95638 | 124.40032 | 40905 ft | 543 kts | 131° |
| 2026-05-05 06:29 | -17.99975 | 124.46533 | 40900 ft | 543 kts | 131° |
| 2026-05-05 06:29 | -18.04310 | 124.53038 | 40904 ft | 544 kts | 131° |
| 2026-05-05 06:30 | -18.08649 | 124.59555 | 40905 ft | 544 kts | 131° |
| 2026-05-05 06:30 | -18.12996 | 124.66089 | 40903 ft | 545 kts | 131° |
| 2026-05-05 06:31 | -18.17339 | 124.72626 | 40903 ft | 545 kts | 131° |
| 2026-05-05 06:31 | -18.21655 | 124.79128 | 40898 ft | 545 kts | 131° |
| 2026-05-05 06:32 | -18.25997 | 124.85676 | 40896 ft | 546 kts | 131° |
| 2026-05-05 06:32 | -18.30344 | 124.92238 | 40902 ft | 546 kts | 131° |
| 2026-05-05 06:33 | -18.34693 | 124.98810 | 40898 ft | 546 kts | 131° |
| 2026-05-05 06:33 | -18.39036 | 125.05379 | 40902 ft | 547 kts | 131° |
| 2026-05-05 06:34 | -18.43382 | 125.11959 | 40904 ft | 547 kts | 131° |
| 2026-05-05 06:34 | -18.47700 | 125.18505 | 40901 ft | 548 kts | 131° |
| 2026-05-05 06:35 | -18.52046 | 125.25098 | 40901 ft | 548 kts | 131° |
| 2026-05-05 06:35 | -18.56393 | 125.31701 | 40903 ft | 548 kts | 131° |
| 2026-05-05 06:36 | -18.60736 | 125.38305 | 40908 ft | 548 kts | 131° |
| 2026-05-05 06:36 | -18.65051 | 125.44873 | 40909 ft | 548 kts | 131° |
| 2026-05-05 06:37 | -18.69395 | 125.51490 | 40908 ft | 548 kts | 131° |
| 2026-05-05 06:37 | -18.73733 | 125.58106 | 40910 ft | 548 kts | 131° |
| 2026-05-05 06:38 | -18.78075 | 125.64736 | 40917 ft | 548 kts | 131° |
| 2026-05-05 06:38 | -18.82416 | 125.71371 | 40919 ft | 548 kts | 131° |
| 2026-05-05 06:39 | -18.86748 | 125.77999 | 40919 ft | 548 kts | 130° |
| 2026-05-05 06:39 | -18.91053 | 125.84594 | 40920 ft | 548 kts | 130° |
| 2026-05-05 06:40 | -18.95382 | 125.91232 | 40922 ft | 548 kts | 131° |
| 2026-05-05 06:40 | -18.99707 | 125.97871 | 40925 ft | 548 kts | 131° |
| 2026-05-05 06:41 | -19.04036 | 126.04522 | 40928 ft | 548 kts | 130° |
| 2026-05-05 06:41 | -19.08360 | 126.11173 | 40930 ft | 548 kts | 130° |
| 2026-05-05 06:42 | -19.12676 | 126.17820 | 40935 ft | 548 kts | 130° |
| 2026-05-05 06:42 | -19.16964 | 126.24429 | 40937 ft | 548 kts | 130° |
| 2026-05-05 06:43 | -19.21276 | 126.31083 | 40942 ft | 548 kts | 130° |
| 2026-05-05 06:43 | -19.25593 | 126.37753 | 40941 ft | 548 kts | 130° |
| 2026-05-05 06:44 | -19.29905 | 126.44421 | 40949 ft | 548 kts | 130° |
| 2026-05-05 06:44 | -19.34208 | 126.51083 | 40947 ft | 548 kts | 130° |
| 2026-05-05 06:45 | -19.38511 | 126.57752 | 40952 ft | 548 kts | 130° |
| 2026-05-05 06:45 | -19.42781 | 126.64378 | 40952 ft | 548 kts | 130° |
| 2026-05-05 06:46 | -19.47078 | 126.71062 | 40959 ft | 548 kts | 130° |
| 2026-05-05 06:46 | -19.51365 | 126.77744 | 40947 ft | 548 kts | 130° |
| 2026-05-05 06:47 | -19.55656 | 126.84438 | 40966 ft | 548 kts | 130° |
| 2026-05-05 06:47 | -19.59945 | 126.91135 | 40966 ft | 548 kts | 130° |
| 2026-05-05 06:48 | -19.64236 | 126.97842 | 40965 ft | 549 kts | 130° |
| 2026-05-05 06:48 | -19.68491 | 127.04501 | 40969 ft | 549 kts | 130° |
| 2026-05-05 06:49 | -19.72776 | 127.11216 | 40972 ft | 549 kts | 130° |
| 2026-05-05 06:49 | -19.77062 | 127.17939 | 40966 ft | 549 kts | 130° |
| 2026-05-05 06:50 | -19.81344 | 127.24664 | 40967 ft | 549 kts | 130° |
| 2026-05-05 06:50 | -19.85626 | 127.31395 | 40967 ft | 550 kts | 130° |
| 2026-05-05 06:51 | -19.89879 | 127.38088 | 40972 ft | 550 kts | 130° |
| 2026-05-05 06:51 | -19.94159 | 127.44832 | 40970 ft | 550 kts | 130° |
| 2026-05-05 06:52 | -19.98437 | 127.51580 | 40977 ft | 550 kts | 130° |
| 2026-05-05 06:52 | -20.02711 | 127.58330 | 40973 ft | 550 kts | 130° |
| 2026-05-05 06:53 | -20.06986 | 127.65089 | 40973 ft | 551 kts | 130° |
| 2026-05-05 06:53 | -20.11262 | 127.71857 | 40980 ft | 551 kts | 130° |
| 2026-05-05 06:54 | -20.15535 | 127.78629 | 40978 ft | 551 kts | 130° |
| 2026-05-05 06:54 | -20.19784 | 127.85369 | 40982 ft | 551 kts | 130° |
| 2026-05-05 06:55 | -20.24058 | 127.92159 | 40980 ft | 551 kts | 130° |
| 2026-05-05 06:55 | -20.28330 | 127.98951 | 40987 ft | 552 kts | 130° |
| 2026-05-05 06:56 | -20.32599 | 128.05748 | 40986 ft | 552 kts | 130° |
| 2026-05-05 06:56 | -20.36871 | 128.12557 | 40988 ft | 552 kts | 130° |
| 2026-05-05 06:57 | -20.41143 | 128.19374 | 40998 ft | 552 kts | 130° |
| 2026-05-05 06:57 | -20.45408 | 128.26189 | 40988 ft | 553 kts | 130° |
| 2026-05-05 06:58 | -20.49673 | 128.33011 | 41007 ft | 553 kts | 130° |
| 2026-05-05 06:58 | -20.53908 | 128.39793 | 40994 ft | 553 kts | 130° |
| 2026-05-05 06:59 | -20.58177 | 128.46637 | 40999 ft | 553 kts | 130° |
| 2026-05-05 06:59 | -20.62441 | 128.53482 | 41006 ft | 553 kts | 130° |
| 2026-05-05 07:00 | -20.66697 | 128.60321 | 41004 ft | 553 kts | 130° |
| 2026-05-05 07:00 | -20.70953 | 128.67171 | 41006 ft | 553 kts | 130° |
| 2026-05-05 07:01 | -20.75179 | 128.73979 | 41009 ft | 553 kts | 130° |
| 2026-05-05 07:01 | -20.79431 | 128.80837 | 41010 ft | 553 kts | 130° |
| 2026-05-05 07:02 | -20.83685 | 128.87707 | 41010 ft | 553 kts | 130° |
| 2026-05-05 07:02 | -20.87929 | 128.94567 | 41009 ft | 553 kts | 130° |
| 2026-05-05 07:03 | -20.91809 | 129.00849 | 41016 ft | 554 kts | 130° |
| 2026-05-05 07:03 | -20.96028 | 129.07686 | 41019 ft | 554 kts | 130° |
| 2026-05-05 07:04 | -21.00275 | 129.14576 | 41019 ft | 553 kts | 130° |
| 2026-05-05 07:04 | -21.04512 | 129.21459 | 41020 ft | 554 kts | 130° |
| 2026-05-05 07:05 | -21.08751 | 129.28353 | 41026 ft | 554 kts | 130° |
| 2026-05-05 07:05 | -21.12982 | 129.35244 | 41018 ft | 554 kts | 130° |
| 2026-05-05 07:06 | -21.17214 | 129.42144 | 41024 ft | 554 kts | 130° |
| 2026-05-05 07:06 | -21.21447 | 129.49054 | 41026 ft | 554 kts | 130° |